sensor_id;sensor_type;location;lat;lon;timestamp;P1;durP1;ratioP1;P2;durP2;ratioP2
56943;SDS011;42848;42.524;12.052;2022-09-06T00:01:05;7.93;;;2.80;;
56943;SDS011;42848;42.524;12.052;2022-09-06T00:03:32;4.28;;;2.70;;
56943;SDS011;42848;42.524;12.052;2022-09-06T00:05:58;4.38;;;3.00;;
56943;SDS011;42848;42.524;12.052;2022-09-06T00:08:31;4.35;;;2.95;;
56943;SDS011;42848;42.524;12.052;2022-09-06T00:10:56;5.22;;;2.78;;
56943;SDS011;42848;42.524;12.052;2022-09-06T00:13:23;6.13;;;3.00;;
56943;SDS011;42848;42.524;12.052;2022-09-06T00:15:48;5.05;;;2.90;;
56943;SDS011;42848;42.524;12.052;2022-09-06T00:18:14;6.00;;;3.50;;
56943;SDS011;42848;42.524;12.052;2022-09-06T00:20:40;4.07;;;3.15;;
56943;SDS011;42848;42.524;12.052;2022-09-06T00:23:05;5.63;;;3.10;;
56943;SDS011;42848;42.524;12.052;2022-09-06T00:25:31;4.95;;;3.45;;
56943;SDS011;42848;42.524;12.052;2022-09-06T00:28:01;4.25;;;3.30;;
56943;SDS011;42848;42.524;12.052;2022-09-06T00:30:29;6.10;;;3.28;;
56943;SDS011;42848;42.524;12.052;2022-09-06T00:32:56;5.80;;;3.42;;
56943;SDS011;42848;42.524;12.052;2022-09-06T00:35:23;6.60;;;3.25;;
56943;SDS011;42848;42.524;12.052;2022-09-06T00:37:50;4.70;;;3.72;;
56943;SDS011;42848;42.524;12.052;2022-09-06T00:40:20;6.07;;;3.85;;
56943;SDS011;42848;42.524;12.052;2022-09-06T00:42:45;5.00;;;3.55;;
56943;SDS011;42848;42.524;12.052;2022-09-06T00:45:11;4.70;;;3.45;;
56943;SDS011;42848;42.524;12.052;2022-09-06T00:47:39;4.95;;;3.33;;
56943;SDS011;42848;42.524;12.052;2022-09-06T00:50:06;6.28;;;3.80;;
56943;SDS011;42848;42.524;12.052;2022-09-06T00:52:35;5.45;;;3.47;;
56943;SDS011;42848;42.524;12.052;2022-09-06T00:55:02;6.15;;;3.50;;
56943;SDS011;42848;42.524;12.052;2022-09-06T00:57:28;4.75;;;3.25;;
56943;SDS011;42848;42.524;12.052;2022-09-06T00:59:56;3.85;;;2.92;;
56943;SDS011;42848;42.524;12.052;2022-09-06T01:02:23;5.28;;;3.30;;
56943;SDS011;42848;42.524;12.052;2022-09-06T01:04:49;6.60;;;3.53;;
56943;SDS011;42848;42.524;12.052;2022-09-06T01:21:08;5.70;;;4.00;;
56943;SDS011;42848;42.524;12.052;2022-09-06T01:24:01;5.20;;;3.70;;
56943;SDS011;42848;42.524;12.052;2022-09-06T01:35:02;5.97;;;3.92;;
56943;SDS011;42848;42.524;12.052;2022-09-06T01:37:50;5.85;;;3.80;;
56943;SDS011;42848;42.524;12.052;2022-09-06T01:40:16;5.85;;;3.92;;
56943;SDS011;42848;42.524;12.052;2022-09-06T01:42:41;6.50;;;4.10;;
56943;SDS011;42848;42.524;12.052;2022-09-06T01:45:11;7.22;;;4.38;;
56943;SDS011;42848;42.524;12.052;2022-09-06T01:50:33;5.80;;;4.60;;
56943;SDS011;42848;42.524;12.052;2022-09-06T02:01:04;6.57;;;4.60;;
56943;SDS011;42848;42.524;12.052;2022-09-06T02:03:59;7.95;;;4.47;;
56943;SDS011;42848;42.524;12.052;2022-09-06T02:06:38;6.68;;;4.28;;
56943;SDS011;42848;42.524;12.052;2022-09-06T02:09:08;7.28;;;4.85;;
56943;SDS011;42848;42.524;12.052;2022-09-06T02:11:40;8.05;;;4.88;;
56943;SDS011;42848;42.524;12.052;2022-09-06T02:14:14;6.38;;;4.45;;
56943;SDS011;42848;42.524;12.052;2022-09-06T02:16:51;7.68;;;4.72;;
56943;SDS011;42848;42.524;12.052;2022-09-06T02:22:05;8.73;;;4.80;;
56943;SDS011;42848;42.524;12.052;2022-09-06T02:24:34;8.45;;;4.45;;
56943;SDS011;42848;42.524;12.052;2022-09-06T02:27:01;6.35;;;4.35;;
56943;SDS011;42848;42.524;12.052;2022-09-06T02:29:27;7.53;;;4.43;;
56943;SDS011;42848;42.524;12.052;2022-09-06T02:32:13;6.32;;;4.18;;
56943;SDS011;42848;42.524;12.052;2022-09-06T02:34:51;6.72;;;4.45;;
56943;SDS011;42848;42.524;12.052;2022-09-06T02:37:19;6.95;;;4.22;;
56943;SDS011;42848;42.524;12.052;2022-09-06T02:39:47;7.55;;;4.18;;
56943;SDS011;42848;42.524;12.052;2022-09-06T02:42:13;5.10;;;3.70;;
56943;SDS011;42848;42.524;12.052;2022-09-06T02:44:41;6.28;;;3.88;;
56943;SDS011;42848;42.524;12.052;2022-09-06T02:47:07;6.28;;;4.15;;
56943;SDS011;42848;42.524;12.052;2022-09-06T02:49:33;5.93;;;4.30;;
56943;SDS011;42848;42.524;12.052;2022-09-06T02:51:59;5.43;;;3.92;;
56943;SDS011;42848;42.524;12.052;2022-09-06T02:54:24;5.55;;;3.85;;
56943;SDS011;42848;42.524;12.052;2022-09-06T02:56:50;5.53;;;3.83;;
56943;SDS011;42848;42.524;12.052;2022-09-06T02:59:16;4.78;;;3.92;;
56943;SDS011;42848;42.524;12.052;2022-09-06T03:01:41;6.88;;;3.72;;
56943;SDS011;42848;42.524;12.052;2022-09-06T03:04:07;5.35;;;3.72;;
56943;SDS011;42848;42.524;12.052;2022-09-06T03:06:33;6.95;;;3.80;;
56943;SDS011;42848;42.524;12.052;2022-09-06T03:08:59;8.68;;;4.30;;
56943;SDS011;42848;42.524;12.052;2022-09-06T03:11:25;6.55;;;3.53;;
56943;SDS011;42848;42.524;12.052;2022-09-06T03:13:52;5.15;;;3.75;;
56943;SDS011;42848;42.524;12.052;2022-09-06T03:16:18;4.50;;;3.47;;
56943;SDS011;42848;42.524;12.052;2022-09-06T03:18:44;8.23;;;3.70;;
56943;SDS011;42848;42.524;12.052;2022-09-06T03:21:11;5.63;;;3.75;;
56943;SDS011;42848;42.524;12.052;2022-09-06T03:23:37;5.40;;;3.80;;
56943;SDS011;42848;42.524;12.052;2022-09-06T03:26:05;6.13;;;3.90;;
56943;SDS011;42848;42.524;12.052;2022-09-06T03:28:32;7.05;;;4.30;;
56943;SDS011;42848;42.524;12.052;2022-09-06T03:30:58;5.68;;;3.95;;
56943;SDS011;42848;42.524;12.052;2022-09-06T03:33:24;7.10;;;4.90;;
56943;SDS011;42848;42.524;12.052;2022-09-06T03:35:51;8.73;;;5.60;;
56943;SDS011;42848;42.524;12.052;2022-09-06T03:38:22;8.48;;;5.93;;
56943;SDS011;42848;42.524;12.052;2022-09-06T03:40:48;7.85;;;5.40;;
56943;SDS011;42848;42.524;12.052;2022-09-06T03:43:15;7.45;;;5.10;;
56943;SDS011;42848;42.524;12.052;2022-09-06T03:45:46;8.77;;;5.05;;
56943;SDS011;42848;42.524;12.052;2022-09-06T03:48:13;6.93;;;4.93;;
56943;SDS011;42848;42.524;12.052;2022-09-06T03:50:46;10.13;;;5.40;;
56943;SDS011;42848;42.524;12.052;2022-09-06T03:53:14;8.70;;;5.55;;
56943;SDS011;42848;42.524;12.052;2022-09-06T03:55:47;7.32;;;5.57;;
56943;SDS011;42848;42.524;12.052;2022-09-06T03:58:16;7.90;;;5.43;;
56943;SDS011;42848;42.524;12.052;2022-09-06T04:00:43;8.20;;;5.65;;
56943;SDS011;42848;42.524;12.052;2022-09-06T04:03:09;9.63;;;6.10;;
56943;SDS011;42848;42.524;12.052;2022-09-06T04:05:35;7.82;;;5.78;;
56943;SDS011;42848;42.524;12.052;2022-09-06T04:08:01;6.65;;;4.95;;
56943;SDS011;42848;42.524;12.052;2022-09-06T04:10:27;6.05;;;4.85;;
56943;SDS011;42848;42.524;12.052;2022-09-06T04:12:53;7.88;;;5.03;;
56943;SDS011;42848;42.524;12.052;2022-09-06T04:15:19;8.27;;;4.93;;
56943;SDS011;42848;42.524;12.052;2022-09-06T04:17:45;6.75;;;5.10;;
56943;SDS011;42848;42.524;12.052;2022-09-06T04:20:12;6.40;;;4.70;;
56943;SDS011;42848;42.524;12.052;2022-09-06T04:22:38;6.95;;;5.03;;
56943;SDS011;42848;42.524;12.052;2022-09-06T04:25:04;7.82;;;5.43;;
56943;SDS011;42848;42.524;12.052;2022-09-06T04:27:30;7.43;;;5.32;;
56943;SDS011;42848;42.524;12.052;2022-09-06T04:29:56;7.38;;;4.90;;
56943;SDS011;42848;42.524;12.052;2022-09-06T04:32:22;8.10;;;5.70;;
56943;SDS011;42848;42.524;12.052;2022-09-06T04:34:48;7.22;;;5.22;;
56943;SDS011;42848;42.524;12.052;2022-09-06T04:37:13;9.35;;;6.07;;
56943;SDS011;42848;42.524;12.052;2022-09-06T04:39:44;8.45;;;5.82;;
56943;SDS011;42848;42.524;12.052;2022-09-06T04:42:11;7.88;;;5.28;;
56943;SDS011;42848;42.524;12.052;2022-09-06T04:44:37;7.22;;;5.38;;
56943;SDS011;42848;42.524;12.052;2022-09-06T04:47:06;10.38;;;5.80;;
56943;SDS011;42848;42.524;12.052;2022-09-06T04:49:39;8.07;;;5.35;;
56943;SDS011;42848;42.524;12.052;2022-09-06T04:52:05;7.82;;;5.28;;
56943;SDS011;42848;42.524;12.052;2022-09-06T04:54:31;10.02;;;5.05;;
56943;SDS011;42848;42.524;12.052;2022-09-06T04:56:56;7.80;;;5.10;;
56943;SDS011;42848;42.524;12.052;2022-09-06T04:59:22;7.47;;;4.97;;
56943;SDS011;42848;42.524;12.052;2022-09-06T05:01:48;6.78;;;5.18;;
56943;SDS011;42848;42.524;12.052;2022-09-06T05:04:13;7.78;;;4.93;;
56943;SDS011;42848;42.524;12.052;2022-09-06T05:06:39;7.47;;;4.90;;
56943;SDS011;42848;42.524;12.052;2022-09-06T05:09:06;10.55;;;5.70;;
56943;SDS011;42848;42.524;12.052;2022-09-06T05:11:32;7.80;;;5.50;;
56943;SDS011;42848;42.524;12.052;2022-09-06T05:13:58;8.95;;;5.63;;
56943;SDS011;42848;42.524;12.052;2022-09-06T05:16:24;9.65;;;5.65;;
56943;SDS011;42848;42.524;12.052;2022-09-06T05:18:49;6.53;;;5.20;;
56943;SDS011;42848;42.524;12.052;2022-09-06T05:21:15;7.18;;;5.25;;
56943;SDS011;42848;42.524;12.052;2022-09-06T05:23:41;11.35;;;5.80;;
56943;SDS011;42848;42.524;12.052;2022-09-06T05:26:07;11.40;;;6.32;;
56943;SDS011;42848;42.524;12.052;2022-09-06T05:28:33;10.15;;;5.47;;
56943;SDS011;42848;42.524;12.052;2022-09-06T05:31:08;10.05;;;6.20;;
56943;SDS011;42848;42.524;12.052;2022-09-06T05:33:35;7.80;;;5.55;;
56943;SDS011;42848;42.524;12.052;2022-09-06T05:36:02;9.02;;;5.53;;
56943;SDS011;42848;42.524;12.052;2022-09-06T05:38:29;10.40;;;6.13;;
56943;SDS011;42848;42.524;12.052;2022-09-06T05:40:55;10.38;;;6.00;;
56943;SDS011;42848;42.524;12.052;2022-09-06T05:43:21;10.60;;;5.82;;
56943;SDS011;42848;42.524;12.052;2022-09-06T05:45:47;10.10;;;5.43;;
56943;SDS011;42848;42.524;12.052;2022-09-06T05:48:12;12.88;;;7.07;;
56943;SDS011;42848;42.524;12.052;2022-09-06T05:50:38;10.50;;;7.78;;
56943;SDS011;42848;42.524;12.052;2022-09-06T05:53:04;9.63;;;6.65;;
56943;SDS011;42848;42.524;12.052;2022-09-06T05:55:30;8.68;;;6.20;;
56943;SDS011;42848;42.524;12.052;2022-09-06T05:57:56;8.75;;;5.50;;
56943;SDS011;42848;42.524;12.052;2022-09-06T06:00:21;13.27;;;5.60;;
56943;SDS011;42848;42.524;12.052;2022-09-06T06:02:47;9.50;;;6.00;;
56943;SDS011;42848;42.524;12.052;2022-09-06T06:05:14;10.35;;;5.45;;
56943;SDS011;42848;42.524;12.052;2022-09-06T06:07:40;8.82;;;5.57;;
56943;SDS011;42848;42.524;12.052;2022-09-06T06:10:07;8.32;;;5.50;;
56943;SDS011;42848;42.524;12.052;2022-09-06T06:12:32;13.10;;;5.70;;
56943;SDS011;42848;42.524;12.052;2022-09-06T06:14:58;9.50;;;5.38;;
56943;SDS011;42848;42.524;12.052;2022-09-06T06:17:24;8.35;;;5.70;;
56943;SDS011;42848;42.524;12.052;2022-09-06T06:19:50;8.27;;;6.10;;
56943;SDS011;42848;42.524;12.052;2022-09-06T06:22:15;9.40;;;6.05;;
56943;SDS011;42848;42.524;12.052;2022-09-06T06:24:41;9.50;;;5.72;;
56943;SDS011;42848;42.524;12.052;2022-09-06T06:27:07;9.93;;;6.35;;
56943;SDS011;42848;42.524;12.052;2022-09-06T06:29:32;12.00;;;7.45;;
56943;SDS011;42848;42.524;12.052;2022-09-06T06:31:58;11.40;;;7.72;;
56943;SDS011;42848;42.524;12.052;2022-09-06T06:34:23;11.05;;;6.45;;
56943;SDS011;42848;42.524;12.052;2022-09-06T06:36:49;7.57;;;4.95;;
56943;SDS011;42848;42.524;12.052;2022-09-06T06:39:15;7.80;;;4.97;;
56943;SDS011;42848;42.524;12.052;2022-09-06T06:41:40;8.43;;;4.68;;
56943;SDS011;42848;42.524;12.052;2022-09-06T06:44:06;7.75;;;4.90;;
56943;SDS011;42848;42.524;12.052;2022-09-06T06:46:36;6.68;;;4.90;;
56943;SDS011;42848;42.524;12.052;2022-09-06T06:49:02;8.77;;;5.05;;
56943;SDS011;42848;42.524;12.052;2022-09-06T06:51:32;9.43;;;5.70;;
56943;SDS011;42848;42.524;12.052;2022-09-06T06:54:01;11.52;;;7.68;;
56943;SDS011;42848;42.524;12.052;2022-09-06T06:56:28;9.77;;;6.15;;
56943;SDS011;42848;42.524;12.052;2022-09-06T06:58:57;9.25;;;5.68;;
56943;SDS011;42848;42.524;12.052;2022-09-06T07:01:25;9.05;;;6.20;;
56943;SDS011;42848;42.524;12.052;2022-09-06T07:03:52;12.65;;;6.35;;
56943;SDS011;42848;42.524;12.052;2022-09-06T07:06:18;11.88;;;7.40;;
56943;SDS011;42848;42.524;12.052;2022-09-06T07:08:45;13.10;;;6.80;;
56943;SDS011;42848;42.524;12.052;2022-09-06T07:11:12;14.02;;;6.07;;
56943;SDS011;42848;42.524;12.052;2022-09-06T07:13:39;11.52;;;6.75;;
56943;SDS011;42848;42.524;12.052;2022-09-06T07:16:18;8.80;;;5.82;;
56943;SDS011;42848;42.524;12.052;2022-09-06T07:18:50;7.88;;;4.80;;
56943;SDS011;42848;42.524;12.052;2022-09-06T07:21:18;7.60;;;4.97;;
56943;SDS011;42848;42.524;12.052;2022-09-06T07:23:50;7.30;;;5.28;;
56943;SDS011;42848;42.524;12.052;2022-09-06T07:26:17;7.55;;;4.85;;
56943;SDS011;42848;42.524;12.052;2022-09-06T07:28:47;7.43;;;4.88;;
56943;SDS011;42848;42.524;12.052;2022-09-06T07:31:15;8.40;;;5.10;;
56943;SDS011;42848;42.524;12.052;2022-09-06T07:33:41;5.22;;;4.43;;
56943;SDS011;42848;42.524;12.052;2022-09-06T07:36:07;7.22;;;4.32;;
56943;SDS011;42848;42.524;12.052;2022-09-06T07:38:33;10.57;;;5.20;;
56943;SDS011;42848;42.524;12.052;2022-09-06T07:41:03;7.55;;;4.93;;
56943;SDS011;42848;42.524;12.052;2022-09-06T07:43:31;6.68;;;4.63;;
56943;SDS011;42848;42.524;12.052;2022-09-06T07:45:58;8.45;;;4.50;;
56943;SDS011;42848;42.524;12.052;2022-09-06T07:48:26;7.32;;;4.72;;
56943;SDS011;42848;42.524;12.052;2022-09-06T07:50:52;5.85;;;4.15;;
56943;SDS011;42848;42.524;12.052;2022-09-06T07:53:18;5.47;;;4.10;;
56943;SDS011;42848;42.524;12.052;2022-09-06T07:55:44;7.00;;;3.90;;
56943;SDS011;42848;42.524;12.052;2022-09-06T07:58:09;7.25;;;4.32;;
56943;SDS011;42848;42.524;12.052;2022-09-06T08:00:35;8.40;;;4.70;;
56943;SDS011;42848;42.524;12.052;2022-09-06T08:03:02;6.25;;;3.95;;
56943;SDS011;42848;42.524;12.052;2022-09-06T08:05:28;6.05;;;3.88;;
56943;SDS011;42848;42.524;12.052;2022-09-06T08:07:54;6.38;;;3.72;;
56943;SDS011;42848;42.524;12.052;2022-09-06T08:10:19;5.55;;;3.90;;
56943;SDS011;42848;42.524;12.052;2022-09-06T08:12:45;5.22;;;3.47;;
56943;SDS011;42848;42.524;12.052;2022-09-06T08:15:11;5.95;;;3.67;;
56943;SDS011;42848;42.524;12.052;2022-09-06T08:17:36;6.65;;;3.53;;
56943;SDS011;42848;42.524;12.052;2022-09-06T08:20:02;4.20;;;3.33;;
56943;SDS011;42848;42.524;12.052;2022-09-06T08:22:32;6.47;;;3.60;;
56943;SDS011;42848;42.524;12.052;2022-09-06T08:24:58;6.13;;;3.80;;
56943;SDS011;42848;42.524;12.052;2022-09-06T08:27:23;6.55;;;4.38;;
56943;SDS011;42848;42.524;12.052;2022-09-06T08:29:49;6.30;;;3.80;;
56943;SDS011;42848;42.524;12.052;2022-09-06T08:32:15;7.25;;;3.80;;
56943;SDS011;42848;42.524;12.052;2022-09-06T08:34:41;6.90;;;3.80;;
56943;SDS011;42848;42.524;12.052;2022-09-06T08:37:06;4.95;;;3.75;;
56943;SDS011;42848;42.524;12.052;2022-09-06T08:39:32;5.72;;;3.50;;
56943;SDS011;42848;42.524;12.052;2022-09-06T08:42:03;7.47;;;3.78;;
56943;SDS011;42848;42.524;12.052;2022-09-06T08:44:34;5.95;;;3.45;;
56943;SDS011;42848;42.524;12.052;2022-09-06T08:47:13;4.57;;;2.97;;
56943;SDS011;42848;42.524;12.052;2022-09-06T08:49:41;7.68;;;3.05;;
56943;SDS011;42848;42.524;12.052;2022-09-06T08:55:29;5.90;;;3.15;;
56943;SDS011;42848;42.524;12.052;2022-09-06T09:03:16;4.45;;;2.83;;
56943;SDS011;42848;42.524;12.052;2022-09-06T09:05:46;4.82;;;2.80;;
56943;SDS011;42848;42.524;12.052;2022-09-06T09:08:22;5.55;;;2.88;;
56943;SDS011;42848;42.524;12.052;2022-09-06T09:11:16;4.03;;;2.50;;
56943;SDS011;42848;42.524;12.052;2022-09-06T09:16:14;6.25;;;2.70;;
56943;SDS011;42848;42.524;12.052;2022-09-06T09:18:44;4.85;;;2.42;;
56943;SDS011;42848;42.524;12.052;2022-09-06T09:21:14;6.50;;;2.60;;
56943;SDS011;42848;42.524;12.052;2022-09-06T09:23:44;3.58;;;2.38;;
56943;SDS011;42848;42.524;12.052;2022-09-06T09:26:19;3.67;;;2.47;;
56943;SDS011;42848;42.524;12.052;2022-09-06T09:31:47;4.00;;;2.00;;
56943;SDS011;42848;42.524;12.052;2022-09-06T09:34:28;4.47;;;2.15;;
56943;SDS011;42848;42.524;12.052;2022-09-06T09:37:16;2.65;;;2.00;;
56943;SDS011;42848;42.524;12.052;2022-09-06T09:39:51;4.88;;;2.15;;
56943;SDS011;42848;42.524;12.052;2022-09-06T09:42:23;3.90;;;1.92;;
56943;SDS011;42848;42.524;12.052;2022-09-06T09:45:00;4.05;;;1.98;;
56943;SDS011;42848;42.524;12.052;2022-09-06T09:47:27;5.03;;;2.17;;
56943;SDS011;42848;42.524;12.052;2022-09-06T09:49:55;3.47;;;1.80;;
56943;SDS011;42848;42.524;12.052;2022-09-06T09:55:04;5.10;;;2.10;;
56943;SDS011;42848;42.524;12.052;2022-09-06T09:57:30;3.08;;;1.90;;
56943;SDS011;42848;42.524;12.052;2022-09-06T10:00:07;3.22;;;1.80;;
56943;SDS011;42848;42.524;12.052;2022-09-06T10:02:37;5.05;;;2.10;;
56943;SDS011;42848;42.524;12.052;2022-09-06T10:05:16;3.83;;;2.00;;
56943;SDS011;42848;42.524;12.052;2022-09-06T10:07:45;6.25;;;1.90;;
56943;SDS011;42848;42.524;12.052;2022-09-06T10:10:20;5.70;;;1.77;;
56943;SDS011;42848;42.524;12.052;2022-09-06T10:12:48;4.57;;;1.80;;
56943;SDS011;42848;42.524;12.052;2022-09-06T10:15:44;4.35;;;1.70;;
56943;SDS011;42848;42.524;12.052;2022-09-06T10:18:14;3.92;;;1.60;;
56943;SDS011;42848;42.524;12.052;2022-09-06T10:20:53;5.35;;;1.83;;
56943;SDS011;42848;42.524;12.052;2022-09-06T10:29:08;3.17;;;2.00;;
56943;SDS011;42848;42.524;12.052;2022-09-06T10:34:32;3.75;;;1.70;;
56943;SDS011;42848;42.524;12.052;2022-09-06T10:37:05;3.53;;;1.60;;
56943;SDS011;42848;42.524;12.052;2022-09-06T10:42:41;5.65;;;1.73;;
56943;SDS011;42848;42.524;12.052;2022-09-06T10:45:34;3.53;;;1.80;;
56943;SDS011;42848;42.524;12.052;2022-09-06T10:53:52;3.10;;;1.60;;
56943;SDS011;42848;42.524;12.052;2022-09-06T11:02:06;6.90;;;1.90;;
56943;SDS011;42848;42.524;12.052;2022-09-06T11:04:40;3.60;;;1.70;;
56943;SDS011;42848;42.524;12.052;2022-09-06T11:07:10;5.55;;;1.70;;
56943;SDS011;42848;42.524;12.052;2022-09-06T11:10:01;6.68;;;1.90;;
56943;SDS011;42848;42.524;12.052;2022-09-06T11:12:37;3.63;;;1.50;;
56943;SDS011;42848;42.524;12.052;2022-09-06T11:15:28;4.93;;;1.65;;
56943;SDS011;42848;42.524;12.052;2022-09-06T11:18:05;3.97;;;1.63;;
56943;SDS011;42848;42.524;12.052;2022-09-06T11:29:38;3.08;;;1.48;;
56943;SDS011;42848;42.524;12.052;2022-09-06T11:35:22;3.60;;;1.35;;
56943;SDS011;42848;42.524;12.052;2022-09-06T11:40:25;3.10;;;1.63;;
56943;SDS011;42848;42.524;12.052;2022-09-06T11:48:28;2.58;;;1.60;;
56943;SDS011;42848;42.524;12.052;2022-09-06T12:04:20;2.47;;;1.40;;
56943;SDS011;42848;42.524;12.052;2022-09-06T12:07:07;3.45;;;1.52;;
56943;SDS011;42848;42.524;12.052;2022-09-06T12:09:41;4.07;;;1.50;;
56943;SDS011;42848;42.524;12.052;2022-09-06T12:12:08;4.47;;;1.73;;
56943;SDS011;42848;42.524;12.052;2022-09-06T12:14:39;5.25;;;1.77;;
56943;SDS011;42848;42.524;12.052;2022-09-06T12:19:41;3.38;;;1.80;;
56943;SDS011;42848;42.524;12.052;2022-09-06T12:24:57;3.95;;;1.80;;
56943;SDS011;42848;42.524;12.052;2022-09-06T12:27:34;3.58;;;1.77;;
56943;SDS011;42848;42.524;12.052;2022-09-06T12:30:14;4.22;;;1.88;;
56943;SDS011;42848;42.524;12.052;2022-09-06T12:35:51;2.20;;;1.50;;
56943;SDS011;42848;42.524;12.052;2022-09-06T12:38:22;3.00;;;1.90;;
56943;SDS011;42848;42.524;12.052;2022-09-06T12:40:49;2.80;;;1.83;;
56943;SDS011;42848;42.524;12.052;2022-09-06T12:43:21;7.25;;;2.40;;
56943;SDS011;42848;42.524;12.052;2022-09-06T12:45:47;5.43;;;1.80;;
56943;SDS011;42848;42.524;12.052;2022-09-06T12:48:25;4.88;;;2.00;;
56943;SDS011;42848;42.524;12.052;2022-09-06T12:51:00;3.17;;;1.90;;
56943;SDS011;42848;42.524;12.052;2022-09-06T12:53:28;3.63;;;1.70;;
56943;SDS011;42848;42.524;12.052;2022-09-06T12:56:10;4.95;;;1.83;;
56943;SDS011;42848;42.524;12.052;2022-09-06T12:58:36;4.32;;;1.88;;
56943;SDS011;42848;42.524;12.052;2022-09-06T13:01:14;4.50;;;1.80;;
56943;SDS011;42848;42.524;12.052;2022-09-06T13:04:01;3.25;;;1.70;;
56943;SDS011;42848;42.524;12.052;2022-09-06T13:06:32;4.25;;;1.95;;
56943;SDS011;42848;42.524;12.052;2022-09-06T13:09:03;3.85;;;1.70;;
56943;SDS011;42848;42.524;12.052;2022-09-06T13:11:34;3.28;;;1.92;;
56943;SDS011;42848;42.524;12.052;2022-09-06T13:14:09;4.28;;;1.80;;
56943;SDS011;42848;42.524;12.052;2022-09-06T13:16:42;4.25;;;1.77;;
56943;SDS011;42848;42.524;12.052;2022-09-06T13:19:12;3.72;;;1.63;;
56943;SDS011;42848;42.524;12.052;2022-09-06T13:21:43;3.70;;;2.00;;
56943;SDS011;42848;42.524;12.052;2022-09-06T13:24:17;5.38;;;1.65;;
56943;SDS011;42848;42.524;12.052;2022-09-06T13:29:58;5.00;;;1.80;;
56943;SDS011;42848;42.524;12.052;2022-09-06T13:32:26;6.28;;;1.70;;
56943;SDS011;42848;42.524;12.052;2022-09-06T13:34:54;3.45;;;1.63;;
56943;SDS011;42848;42.524;12.052;2022-09-06T13:37:25;2.92;;;1.80;;
56943;SDS011;42848;42.524;12.052;2022-09-06T13:39:53;3.53;;;2.03;;
56943;SDS011;42848;42.524;12.052;2022-09-06T13:42:34;3.22;;;1.90;;
56943;SDS011;42848;42.524;12.052;2022-09-06T13:47:51;3.58;;;1.83;;
56943;SDS011;42848;42.524;12.052;2022-09-06T13:50:16;5.05;;;1.90;;
56943;SDS011;42848;42.524;12.052;2022-09-06T13:52:42;4.45;;;1.80;;
56943;SDS011;42848;42.524;12.052;2022-09-06T13:55:08;4.30;;;2.20;;
56943;SDS011;42848;42.524;12.052;2022-09-06T13:57:40;2.80;;;1.80;;
56943;SDS011;42848;42.524;12.052;2022-09-06T14:00:09;5.90;;;1.80;;
56943;SDS011;42848;42.524;12.052;2022-09-06T14:02:38;3.03;;;1.70;;
56943;SDS011;42848;42.524;12.052;2022-09-06T14:05:05;5.20;;;1.73;;
56943;SDS011;42848;42.524;12.052;2022-09-06T14:07:31;3.55;;;1.67;;
56943;SDS011;42848;42.524;12.052;2022-09-06T14:09:57;4.00;;;1.80;;
56943;SDS011;42848;42.524;12.052;2022-09-06T14:12:25;3.75;;;1.77;;
56943;SDS011;42848;42.524;12.052;2022-09-06T14:14:51;3.65;;;1.80;;
56943;SDS011;42848;42.524;12.052;2022-09-06T14:17:17;4.40;;;1.90;;
56943;SDS011;42848;42.524;12.052;2022-09-06T14:19:43;3.05;;;1.80;;
56943;SDS011;42848;42.524;12.052;2022-09-06T14:22:10;3.25;;;1.70;;
56943;SDS011;42848;42.524;12.052;2022-09-06T14:24:36;2.78;;;1.80;;
56943;SDS011;42848;42.524;12.052;2022-09-06T14:27:02;3.55;;;1.90;;
56943;SDS011;42848;42.524;12.052;2022-09-06T14:29:31;3.38;;;1.88;;
56943;SDS011;42848;42.524;12.052;2022-09-06T14:31:58;4.78;;;1.70;;
56943;SDS011;42848;42.524;12.052;2022-09-06T14:34:24;3.85;;;1.90;;
56943;SDS011;42848;42.524;12.052;2022-09-06T14:36:50;3.63;;;1.60;;
56943;SDS011;42848;42.524;12.052;2022-09-06T14:39:16;4.22;;;1.60;;
56943;SDS011;42848;42.524;12.052;2022-09-06T14:41:42;3.63;;;1.73;;
56943;SDS011;42848;42.524;12.052;2022-09-06T14:44:08;4.57;;;1.70;;
56943;SDS011;42848;42.524;12.052;2022-09-06T14:46:34;3.47;;;1.80;;
56943;SDS011;42848;42.524;12.052;2022-09-06T14:49:01;3.10;;;1.80;;
56943;SDS011;42848;42.524;12.052;2022-09-06T14:51:32;3.45;;;1.80;;
56943;SDS011;42848;42.524;12.052;2022-09-06T14:54:01;3.97;;;1.60;;
56943;SDS011;42848;42.524;12.052;2022-09-06T14:56:28;4.47;;;1.90;;
56943;SDS011;42848;42.524;12.052;2022-09-06T14:58:54;4.10;;;1.95;;
56943;SDS011;42848;42.524;12.052;2022-09-06T15:01:23;3.35;;;1.70;;
56943;SDS011;42848;42.524;12.052;2022-09-06T15:03:52;3.90;;;1.73;;
56943;SDS011;42848;42.524;12.052;2022-09-06T15:06:21;2.78;;;1.80;;
56943;SDS011;42848;42.524;12.052;2022-09-06T15:08:49;3.47;;;1.70;;
56943;SDS011;42848;42.524;12.052;2022-09-06T15:14:01;5.05;;;1.73;;
56943;SDS011;42848;42.524;12.052;2022-09-06T15:16:28;3.85;;;1.60;;
56943;SDS011;42848;42.524;12.052;2022-09-06T15:18:54;2.58;;;1.50;;
56943;SDS011;42848;42.524;12.052;2022-09-06T15:21:21;3.17;;;1.50;;
56943;SDS011;42848;42.524;12.052;2022-09-06T15:23:50;3.45;;;1.38;;
56943;SDS011;42848;42.524;12.052;2022-09-06T15:26:16;4.53;;;1.60;;
56943;SDS011;42848;42.524;12.052;2022-09-06T15:28:43;5.10;;;1.40;;
56943;SDS011;42848;42.524;12.052;2022-09-06T15:31:10;5.22;;;1.73;;
56943;SDS011;42848;42.524;12.052;2022-09-06T15:33:38;4.10;;;1.65;;
56943;SDS011;42848;42.524;12.052;2022-09-06T15:36:04;3.28;;;1.65;;
56943;SDS011;42848;42.524;12.052;2022-09-06T15:38:35;3.42;;;1.45;;
56943;SDS011;42848;42.524;12.052;2022-09-06T15:41:08;4.90;;;1.50;;
56943;SDS011;42848;42.524;12.052;2022-09-06T15:43:35;2.38;;;1.40;;
56943;SDS011;42848;42.524;12.052;2022-09-06T15:46:08;3.00;;;1.50;;
56943;SDS011;42848;42.524;12.052;2022-09-06T15:48:42;3.22;;;1.50;;
56943;SDS011;42848;42.524;12.052;2022-09-06T15:51:11;3.08;;;1.60;;
56943;SDS011;42848;42.524;12.052;2022-09-06T15:53:38;3.47;;;1.52;;
56943;SDS011;42848;42.524;12.052;2022-09-06T15:56:04;3.83;;;1.60;;
56943;SDS011;42848;42.524;12.052;2022-09-06T15:58:31;3.15;;;1.30;;
56943;SDS011;42848;42.524;12.052;2022-09-06T16:01:01;2.75;;;1.42;;
56943;SDS011;42848;42.524;12.052;2022-09-06T16:03:29;3.03;;;1.60;;
56943;SDS011;42848;42.524;12.052;2022-09-06T16:05:59;4.07;;;1.50;;
56943;SDS011;42848;42.524;12.052;2022-09-06T16:08:27;3.10;;;1.70;;
56943;SDS011;42848;42.524;12.052;2022-09-06T16:10:53;4.40;;;1.60;;
56943;SDS011;42848;42.524;12.052;2022-09-06T16:13:20;3.90;;;1.30;;
56943;SDS011;42848;42.524;12.052;2022-09-06T16:15:56;3.97;;;1.40;;
56943;SDS011;42848;42.524;12.052;2022-09-06T16:18:23;2.58;;;1.35;;
56943;SDS011;42848;42.524;12.052;2022-09-06T16:20:49;4.00;;;1.60;;
56943;SDS011;42848;42.524;12.052;2022-09-06T16:23:16;3.80;;;1.40;;
56943;SDS011;42848;42.524;12.052;2022-09-06T16:25:51;4.22;;;1.60;;
56943;SDS011;42848;42.524;12.052;2022-09-06T16:28:18;3.58;;;1.40;;
56943;SDS011;42848;42.524;12.052;2022-09-06T16:30:44;3.83;;;1.50;;
56943;SDS011;42848;42.524;12.052;2022-09-06T16:33:10;5.97;;;1.40;;
56943;SDS011;42848;42.524;12.052;2022-09-06T16:35:38;3.72;;;1.38;;
56943;SDS011;42848;42.524;12.052;2022-09-06T16:38:06;5.22;;;1.80;;
56943;SDS011;42848;42.524;12.052;2022-09-06T16:40:32;5.40;;;1.50;;
56943;SDS011;42848;42.524;12.052;2022-09-06T16:43:01;4.85;;;1.77;;
56943;SDS011;42848;42.524;12.052;2022-09-06T16:45:28;4.70;;;1.70;;
56943;SDS011;42848;42.524;12.052;2022-09-06T16:47:56;3.97;;;1.40;;
56943;SDS011;42848;42.524;12.052;2022-09-06T16:50:21;3.80;;;1.52;;